METAR Data
IDs: Format: Raw Decoded Include TAF

Data at: 2041 UTC 13 Aug 2020

Region: TOP
KATL 131952Z 26007KT 10SM FEW050 FEW100 SCT200 SCT250 34/21 A2995 RMK AO2 SLP131 CB DSNT N TCU DSNT N E SE T03390206

KBOS 131954Z 11010KT 10SM FEW070 SCT170 BKN250 26/14 A3008 RMK AO2 SLP185 T02610144

KBWI 131954Z 07008KT 10SM R10/4500VP6000FT SCT015 SCT100 BKN190 BKN250 27/23 A3003 RMK AO2 SLP167 T02720228

KCLE 131951Z 02010KT 10SM FEW070 SCT250 29/19 A3006 RMK AO2 SLP176 T02890189

KCLT 132018Z 16006KT 10SM TS FEW013 SCT026CB SCT120 BKN200 26/22 A2997 RMK AO2 FRQ LTGICCCCG NW-NE TSE1956B17 TS NW-NE MOV SLWLY S TS S-SW MOV S T02610222

KCVG 131952Z 36007KT 10SM BKN045 BKN230 32/19 A3001 RMK AO2 SLP150 T03170194

KDCA 131952Z 05008KT 10SM SCT023 SCT140 OVC230 28/23 A3003 RMK AO2 SLP169 T02830233

KDEN 131953Z VRB04KT 10SM FEW090 34/M03 A3011 RMK AO2 SLP100 T03391028

KDFW 131953Z 19010KT 10SM FEW060 37/21 A2988 RMK AO2 SLP106 T03720211

KDTW 131953Z 06013G19KT 10SM FEW045 BKN210 29/09 A3008 RMK AO2 SLP182 T02940094

KEWR 131951Z 05005KT 10SM FEW034 FEW100 BKN170 OVC250 27/21 A3007 RMK AO2 SLP182 T02670206 $

KFLL 131953Z 10010KT 10SM FEW026 BKN250 32/26 A2997 RMK AO2 SLP150 TCU DSNT SE T03220256

KIAD 132031Z 11008KT 10SM SCT027 BKN065 BKN110 28/22 A3002 RMK AO2 T02830217

KIAH 131953Z 17007KT 10SM FEW055 36/22 A2993 RMK AO2 SLP134 T03610217

KJFK 131951Z 03007KT 10SM FEW017 FEW046 SCT075 BKN150 BKN250 26/22 A3008 RMK AO2 SLP187 T02610222

KLAS 131956Z VRB04KT 7SM FEW150 BKN250 39/06 A2991 RMK AO2 SLP095 FU AND HZ VC ALQDS T03940061

KLAX 131953Z COR 25009KT 10SM FEW050 FEW080 BKN140 BKN180 27/11 A2990 RMK A02 SLP123 T02670106

KLGA 131951Z 07007KT 10SM SCT029 BKN075 OVC250 26/20 A3007 RMK AO2 SLP181 T02560200

KMCO 132021Z 20021G26KT 5SM TSRA SCT060CB BKN110 BKN250 27/23 A2999 RMK AO2 PK WND 19026/2021 LTG DSNT NE AND E AND W RAB04 TSE19B21 OCNL LTGCGIC OHD N-E TS OHD N-E MOV NE P0003 T02720233

KMDW 131953Z 07006KT 10SM FEW150 SCT200 SCT250 28/12 A3006 RMK AO2 SLP167 T02830117

KMEM 131954Z 00000KT 10SM FEW027 SCT055 BKN250 32/23 A2993 RMK AO2 SLP131 T03170228 $

KMIA 131953Z 11007G16KT 10SM SCT035 BKN250 33/23 A2998 RMK AO2 SLP150 T03280233

KMSP 131953Z 19011G19KT 10SM SCT038 SCT180 31/22 A2997 RMK AO2 SLP142 T03060217

KORD 131951Z 05007KT 10SM FEW200 SCT250 29/10 A3006 RMK AO2 SLP173 T02940100

KPDX 131953Z 29005KT 10SM FEW035 BKN300 21/05 A3015 RMK AO2 SLP209 T02110050

KPHL 131954Z 11005KT 7SM -RA SCT055TCU OVC120 26/24 A3007 RMK AO2 SLP182 TCU N P0000 T02610239

KPHX 131951Z 28007KT 240V330 10SM FEW120 FEW230 SCT250 44/11 A2979 RMK AO2 SLP063 VIRGA DSNT NW CB DSNT SE T04440106

KPIT 132031Z 06010G17KT 10SM -TSRA SCT060CB BKN100 BKN250 31/18 A3000 RMK AO2 RAB21 TSB29 OCNL LTGICCG E TS E MOV E P0000 T03060178

KSAN 131951Z 30009KT 10SM SCT200 BKN250 28/13 A2989 RMK AO2 SLP121 T02830128

KSEA 131953Z 26006KT 10SM FEW030 SCT250 20/08 A3017 RMK AO2 SLP220 T02000078

KSFO 131956Z 02005KT 10SM FEW010 BKN200 25/16 A2991 RMK AO2 SLP129 T02500161

KSLC 131954Z 36004G14KT 10SM FEW110 FEW180 FEW250 33/M01 A3007 RMK AO2 SLP118 ACSL DSNT NW T03281011

KSTL 131951Z 05006KT 10SM SCT028 SCT070 BKN250 29/22 A2999 RMK AO2 SLP144 T02940222

KTPA 131959Z COR 26008KT 10SM TS SCT040CB BKN190 34/22 A2998 RMK AO2 LTG DSNT SE TSB59 FRQ LTGICCG VC SW-W TS VC SW-W MOV N TCU ALQDS VCSH SW-W T03390217